Terminal Aerodrome Forecast
Issued by NWS Charleston, WV

Current Version | Previous Version | Graphics & Text | Print | Product List | Glossary On
Versions: 1 2 3 4 5 6 7 8 9 10 11 12 13 14 15 16 17 18 19 20 21 22 23
519
FTUS41 KRLX 202330
TAFBKW
TAF
KBKW 202330Z 2100/2124 17004KT P6SM SCT040 BKN080
      TEMPO 2101/2103 3SM SHRA BR BKN025
     FM210600 22006KT P6SM OVC035
     FM210800 23006KT P6SM VCSH OVC015
     FM211300 24006KT P6SM VCTS OVC015CB
     FM211600 28007KT P6SM BKN015
     FM212100 30009KT P6SM BKN025
     FM212300 30009KT P6SM SCT035=

USA.gov is the U.S. government's official web portal to all federal, state and local government web resources and services.